Check out our new BloomSky Weather System.

Active alerts

Galveston, TX
  Details for Galveston, TX Coastal Flood Advisory  +2 additional alerts
Houston, TX
  Details for Houston, TX Flash Flood Watch
Fort Bend, TX
  Details for Fort Bend, TX Flash Flood Watch


Thunder radar  blitzortung!


Rain radar more information rain snow radar


Visit our other weather sites:

Template documentation
and downloads

And another site



Weather Underground History page Text

Daily Summary for January 27, 2017 Units:  English    Metric   Both
« Previous Day
Next Day »
Daily Weekly Monthly Yearly Custom
  High: Low: Average:
Temperature: TemperatureF °F 40.5 °F 48.2 °F
Dew Point: DewpointF °F 24.8 °F 30.1 °F
Humidity: Humidity % 30 % 51 %
Wind Speed: WindSpeedMPH mph 0.0 mph 1.2 mph
Wind Gust: WindSpeedGustMPH mph - -
Wind:- - SSW
Pressure: PressureIn in 30.26 in -
Precipitation: 0.00 in    
Historical Graphs
 
 
Tabular Data for January 27, 2017
Time Temperature Dew Point Pressure Wind Wind Speed Wind Gust Humidity Rainfall Rate (Hourly)
TemperatureF °F DewpointF °F PressureIn in Calm     Humidity % HourlyPrecipIn in
00:02 41.4 °F 34.3 °F 30.30 in Calm     76 % 0.00 in
00:07 41.4 °F 34.3 °F 30.30 in Calm     76 % 0.00 in
00:12 41.4 °F 34.3 °F 30.30 in Calm     76 % 0.00 in
00:17 41.4 °F 34.3 °F 30.29 in Calm     76 % 0.00 in
00:22 41.4 °F 34.3 °F 30.29 in Calm     76 % 0.00 in
00:27 41.5 °F 34.5 °F 30.29 in Calm     76 % 0.00 in
00:32 41.5 °F 34.5 °F 30.29 in Calm   1.0 mph 76 % 0.00 in
00:37 41.5 °F 34.5 °F 30.29 in Calm   1.0 mph 76 % 0.00 in
00:42 41.4 °F 34.3 °F 30.29 in North 1.0 mph 1.0 mph 76 % 0.00 in
00:47 41.4 °F 34.0 °F 30.28 in Calm   1.0 mph 75 % 0.00 in
00:52 41.5 °F 34.2 °F 30.28 in Calm   1.0 mph 75 % 0.00 in
00:57 41.5 °F 33.8 °F 30.28 in Calm   1.0 mph 74 % 0.00 in
01:03 41.5 °F 33.6 °F 30.28 in North 1.0 mph 1.0 mph 73 % 0.00 in
01:08 41.9 °F 33.6 °F 30.28 in Calm   1.0 mph 72 % 0.00 in
01:13 42.1 °F 33.4 °F 30.28 in NNW 1.0 mph 1.0 mph 71 % 0.00 in
01:18 42.1 °F 33.4 °F 30.28 in Calm   2.0 mph 71 % 0.00 in
01:23 42.1 °F 33.4 °F 30.28 in Calm   3.0 mph 71 % 0.00 in
01:28 42.1 °F 33.4 °F 30.28 in NNW 1.0 mph 3.0 mph 71 % 0.00 in
01:33 42.1 °F 33.1 °F 30.28 in Calm   3.0 mph 70 % 0.00 in
01:38 42.3 °F 33.3 °F 30.29 in Calm   2.0 mph 70 % 0.00 in
01:43 42.3 °F 33.3 °F 30.28 in Calm   2.0 mph 70 % 0.00 in
01:48 42.1 °F 33.1 °F 30.28 in Calm   2.0 mph 70 % 0.00 in
01:53 41.9 °F 32.9 °F 30.28 in Calm   2.0 mph 70 % 0.00 in
01:58 41.7 °F 32.7 °F 30.29 in Calm   2.0 mph 70 % 0.00 in
02:03 41.7 °F 32.4 °F 30.28 in Calm   1.0 mph 69 % 0.00 in
02:08 42.3 °F 32.5 °F 30.28 in North 1.0 mph 1.0 mph 68 % 0.00 in
02:13 42.4 °F 32.2 °F 30.28 in Calm   3.0 mph 67 % 0.00 in
02:18 42.6 °F 32.0 °F 30.28 in NNE 1.0 mph 3.0 mph 66 % 0.00 in
02:23 43.0 °F 32.0 °F 30.28 in Calm   4.0 mph 65 % 0.00 in
02:28 43.2 °F 31.8 °F 30.28 in Calm   4.0 mph 64 % 0.00 in
02:33 43.3 °F 32.0 °F 30.28 in Calm   6.0 mph 64 % 0.00 in
02:38 43.5 °F 31.8 °F 30.28 in Calm   6.0 mph 63 % 0.00 in
02:43 43.5 °F 31.8 °F 30.27 in North 2.0 mph 6.0 mph 63 % 0.00 in
02:48 43.5 °F 31.8 °F 30.27 in NW 1.0 mph 4.0 mph 63 % 0.00 in
02:53 43.5 °F 31.8 °F 30.27 in NNW 2.0 mph 4.0 mph 63 % 0.00 in
02:58 43.3 °F 31.6 °F 30.27 in NNW 1.0 mph 4.0 mph 63 % 0.00 in
03:03 43.5 °F 32.2 °F 30.26 in NW 1.0 mph 8.0 mph 64 % 0.00 in
03:08 43.3 °F 32.0 °F 30.27 in NW 1.0 mph 8.0 mph 64 % 0.00 in
03:13 43.3 °F 32.0 °F 30.27 in NW 3.0 mph 8.0 mph 64 % 0.00 in
03:18 43.3 °F 32.4 °F 30.26 in Calm   5.0 mph 65 % 0.00 in
03:23 43.2 °F 32.2 °F 30.26 in NNW 1.0 mph 5.0 mph 65 % 0.00 in
03:28 43.2 °F 32.2 °F 30.27 in Calm   5.0 mph 65 % 0.00 in
03:33 43.2 °F 32.5 °F 30.27 in NW 1.0 mph 5.0 mph 66 % 0.00 in
03:38 43.0 °F 32.7 °F 30.27 in NNW 1.0 mph 4.0 mph 67 % 0.00 in
03:43 43.0 °F 32.7 °F 30.27 in NNW 1.0 mph 4.0 mph 67 % 0.00 in
03:48 43.0 °F 32.7 °F 30.27 in NW 1.0 mph 4.0 mph 67 % 0.00 in
03:53 43.0 °F 32.7 °F 30.27 in WNW 2.0 mph 4.0 mph 67 % 0.00 in
03:58 43.0 °F 32.7 °F 30.27 in NNW 1.0 mph 5.0 mph 67 % 0.00 in
04:03 43.0 °F 32.7 °F 30.28 in Calm   5.0 mph 67 % 0.00 in
04:08 42.8 °F 32.5 °F 30.28 in NW 1.0 mph 5.0 mph 67 % 0.00 in
04:14 42.8 °F 32.9 °F 30.28 in WNW 1.0 mph 4.0 mph 68 % 0.00 in
04:19 42.6 °F 32.7 °F 30.28 in NW 1.0 mph 4.0 mph 68 % 0.00 in
04:24 42.6 °F 32.7 °F 30.28 in NW 1.0 mph 4.0 mph 68 % 0.00 in
04:29 42.6 °F 32.7 °F 30.28 in North 2.0 mph 4.0 mph 68 % 0.00 in
04:34 42.4 °F 32.7 °F 30.28 in NNE 1.0 mph 4.0 mph 68 % 0.00 in
04:39 42.4 °F 32.7 °F 30.29 in NW 2.0 mph 4.0 mph 68 % 0.00 in
04:44 42.4 °F 33.1 °F 30.29 in Calm   4.0 mph 69 % 0.00 in
04:49 42.3 °F 32.9 °F 30.29 in North 1.0 mph 4.0 mph 69 % 0.00 in
04:54 42.3 °F 32.9 °F 30.29 in NNE 2.0 mph 4.0 mph 69 % 0.00 in
04:59 42.3 °F 32.9 °F 30.29 in NNW 2.0 mph 4.0 mph 69 % 0.00 in
05:04 42.3 °F 33.3 °F 30.29 in North 1.0 mph 4.0 mph 70 % 0.00 in
05:09 42.3 °F 33.3 °F 30.30 in NNW 2.0 mph 4.0 mph 70 % 0.00 in
05:14 42.1 °F 33.1 °F 30.30 in Calm   4.0 mph 70 % 0.00 in
05:19 42.1 °F 33.1 °F 30.30 in ENE 4.0 mph 4.0 mph 70 % 0.00 in
05:24 42.3 °F 33.3 °F 30.30 in NNW 4.0 mph 6.0 mph 70 % 0.00 in
05:29 42.3 °F 33.3 °F 30.30 in NNW 2.0 mph 6.0 mph 70 % 0.00 in
05:34 42.4 °F 33.1 °F 30.30 in Calm   8.0 mph 69 % 0.00 in
05:39 42.3 °F 32.9 °F 30.31 in Calm   8.0 mph 69 % 0.00 in
05:44 42.3 °F 33.3 °F 30.31 in ENE 1.0 mph 8.0 mph 70 % 0.00 in
05:49 42.1 °F 33.1 °F 30.31 in Calm   5.0 mph 70 % 0.00 in
05:54 42.1 °F 33.1 °F 30.31 in Calm   4.0 mph 70 % 0.00 in
05:59 41.7 °F 33.1 °F 30.31 in Calm   2.0 mph 71 % 0.00 in
06:04 41.5 °F 33.3 °F 30.32 in Calm   1.0 mph 72 % 0.00 in
06:09 41.4 °F 33.1 °F 30.32 in North 1.0 mph 2.0 mph 72 % 0.00 in
06:14 41.2 °F 33.3 °F 30.32 in Calm   2.0 mph 73 % 0.00 in
06:19 40.8 °F 33.3 °F 30.31 in NNW 1.0 mph 2.0 mph 74 % 0.00 in
06:24 40.6 °F 33.1 °F 30.32 in Calm   2.0 mph 74 % 0.00 in
06:29 40.6 °F 33.1 °F 30.32 in Calm   2.0 mph 74 % 0.00 in
06:34 40.5 °F 32.9 °F 30.32 in Calm   2.0 mph 74 % 0.00 in
06:39 40.5 °F 33.1 °F 30.32 in Calm   2.0 mph 75 % 0.00 in
06:44 40.5 °F 33.1 °F 30.32 in Calm   3.0 mph 75 % 0.00 in
06:49 40.6 °F 33.1 °F 30.32 in NNW 3.0 mph 4.0 mph 74 % 0.00 in
06:59 40.8 °F 32.9 °F 30.32 in ENE 2.0 mph 5.0 mph 73 % 0.00 in
07:04 40.8 °F 32.9 °F 30.32 in Calm   5.0 mph 73 % 0.00 in
07:09 41.2 °F 32.9 °F 30.33 in North 1.0 mph 3.0 mph 72 % 0.00 in
07:15 41.4 °F 32.7 °F 30.33 in NNE 3.0 mph 6.0 mph 71 % 0.00 in
07:20 41.5 °F 32.9 °F 30.32 in West 4.0 mph 7.0 mph 71 % 0.00 in
07:25 41.5 °F 32.5 °F 30.33 in North 4.0 mph 7.0 mph 70 % 0.00 in
07:30 41.7 °F 32.4 °F 30.33 in NNE 2.0 mph 7.0 mph 69 % 0.00 in
07:35 41.7 °F 32.0 °F 30.33 in NNW 3.0 mph 8.0 mph 68 % 0.00 in
07:40 41.9 °F 31.8 °F 30.33 in NNE 6.0 mph 9.0 mph 67 % 0.00 in
07:45 42.1 °F 31.5 °F 30.33 in NE 3.0 mph 9.0 mph 66 % 0.00 in
07:50 42.4 °F 31.5 °F 30.33 in NW 1.0 mph 9.0 mph 65 % 0.00 in
07:55 42.6 °F 30.9 °F 30.33 in NNE 3.0 mph 9.0 mph 63 % 0.00 in
08:00 43.0 °F 30.9 °F 30.33 in NNE 3.0 mph 8.0 mph 62 % 0.00 in
08:05 43.2 °F 31.1 °F 30.34 in NNW 1.0 mph 6.0 mph 62 % 0.00 in
08:10 43.3 °F 30.7 °F 30.34 in Calm   6.0 mph 61 % 0.00 in
08:15 43.5 °F 30.6 °F 30.35 in NNE 1.0 mph 6.0 mph 60 % 0.00 in
08:20 43.7 °F 30.7 °F 30.35 in East 1.0 mph 4.0 mph 60 % 0.00 in
08:25 43.9 °F 30.6 °F 30.35 in NNW 2.0 mph 4.0 mph 59 % 0.00 in
08:30 43.9 °F 30.0 °F 30.35 in NNE 5.0 mph 5.0 mph 58 % 0.00 in
08:35 44.1 °F 30.2 °F 30.35 in Calm   5.0 mph 58 % 0.00 in
08:40 44.2 °F 30.7 °F 30.35 in NNE 2.0 mph 5.0 mph 59 % 0.00 in
08:45 44.4 °F 30.2 °F 30.35 in NNW 2.0 mph 5.0 mph 57 % 0.00 in
08:50 44.4 °F 30.2 °F 30.35 in Calm   5.0 mph 57 % 0.00 in
08:55 44.8 °F 30.6 °F 30.36 in NNE 2.0 mph 5.0 mph 57 % 0.00 in
09:00 44.8 °F 30.0 °F 30.36 in Calm   5.0 mph 56 % 0.00 in
09:05 45.0 °F 30.2 °F 30.36 in ENE 2.0 mph 5.0 mph 56 % 0.00 in
09:06 45.0 °F 30.2 °F 30.36 in North 1.0 mph 5.0 mph 56 % 0.00 in
09:11 45.1 °F 30.0 °F 30.37 in ENE 2.0 mph 6.0 mph 55 % 0.00 in
09:16 45.3 °F 30.0 °F 30.37 in NW 1.0 mph 6.0 mph 55 % 0.00 in
09:21 45.5 °F 29.8 °F 30.37 in WNW 1.0 mph 6.0 mph 54 % 0.00 in
09:23 45.7 °F 30.0 °F 30.36 in WNW 2.0 mph 6.0 mph 54 % 0.00 in
09:28 45.9 °F 30.2 °F 30.37 in NE 4.0 mph 6.0 mph 54 % 0.00 in
09:33 46.2 °F 30.6 °F 30.37 in NNW 1.0 mph 6.0 mph 54 % 0.00 in
09:38 46.6 °F 30.4 °F 30.37 in Calm   6.0 mph 53 % 0.00 in
09:43 46.8 °F 30.0 °F 30.37 in NNW 1.0 mph 6.0 mph 52 % 0.00 in
09:48 46.9 °F 29.3 °F 30.38 in East 2.0 mph 6.0 mph 50 % 0.00 in
09:53 47.5 °F 30.2 °F 30.38 in ENE 2.0 mph 6.0 mph 51 % 0.00 in
09:59 47.8 °F 29.7 °F 30.38 in North 4.0 mph 6.0 mph 49 % 0.00 in
10:04 48.2 °F 29.5 °F 30.38 in NE 6.0 mph 6.0 mph 48 % 0.00 in
10:09 48.4 °F 28.6 °F 30.38 in NNW 2.0 mph 10.0 mph 46 % 0.00 in
10:14 48.7 °F 28.4 °F 30.38 in North 6.0 mph 10.0 mph 45 % 0.00 in
10:19 48.9 °F 28.6 °F 30.38 in NE 2.0 mph 10.0 mph 45 % 0.00 in
10:24 49.3 °F 28.8 °F 30.38 in NW 3.0 mph 10.0 mph 45 % 0.00 in
10:29 49.6 °F 29.1 °F 30.38 in NNW 1.0 mph 8.0 mph 45 % 0.00 in
10:34 50.2 °F 29.1 °F 30.37 in Calm   7.0 mph 44 % 0.00 in
10:39 50.4 °F 28.2 °F 30.37 in NNW 3.0 mph 6.0 mph 42 % 0.00 in
10:44 50.4 °F 28.2 °F 30.37 in North 4.0 mph 13.0 mph 42 % 0.00 in
10:49 50.5 °F 28.9 °F 30.37 in NW 2.0 mph 13.0 mph 43 % 0.00 in
10:54 51.1 °F 29.3 °F 30.37 in East 1.0 mph 13.0 mph 43 % 0.00 in
10:59 51.1 °F 28.8 °F 30.37 in NW 1.0 mph 8.0 mph 42 % 0.00 in
11:04 51.4 °F 29.1 °F 30.37 in Calm   8.0 mph 42 % 0.00 in
11:09 52.0 °F 28.9 °F 30.37 in ENE 5.0 mph 8.0 mph 41 % 0.00 in
11:14 52.3 °F 29.3 °F 30.36 in ENE 4.0 mph 8.0 mph 41 % 0.00 in
11:19 52.7 °F 29.7 °F 30.36 in NE 4.0 mph 8.0 mph 41 % 0.00 in
11:24 52.9 °F 28.6 °F 30.36 in ENE 2.0 mph 8.0 mph 39 % 0.00 in
11:29 53.2 °F 29.5 °F 30.35 in North 3.0 mph 11.0 mph 40 % 0.00 in
11:34 53.8 °F 29.5 °F 30.36 in NE 3.0 mph 11.0 mph 39 % 0.00 in
11:39 53.8 °F 28.8 °F 30.35 in NNW 2.0 mph 11.0 mph 38 % 0.00 in
11:44 54.0 °F 28.2 °F 30.35 in West 3.0 mph 8.0 mph 37 % 0.00 in
11:49 54.0 °F 27.7 °F 30.35 in Calm   8.0 mph 36 % 0.00 in
11:54 54.3 °F 27.9 °F 30.35 in North 2.0 mph 11.0 mph 36 % 0.00 in
11:59 54.5 °F 28.0 °F 30.34 in NNW 6.0 mph 11.0 mph 36 % 0.00 in
12:04 54.7 °F 28.2 °F 30.35 in NW 1.0 mph 11.0 mph 36 % 0.00 in
12:09 55.0 °F 27.9 °F 30.34 in NNW 5.0 mph 8.0 mph 35 % 0.00 in
12:14 55.2 °F 28.0 °F 30.34 in NE 2.0 mph 8.0 mph 35 % 0.00 in
12:19 55.6 °F 27.7 °F 30.34 in North 3.0 mph 9.0 mph 34 % 0.00 in
12:24 55.8 °F 29.1 °F 30.34 in East 1.0 mph 9.0 mph 36 % 0.00 in
12:29 55.9 °F 28.0 °F 30.34 in East 2.0 mph 9.0 mph 34 % 0.00 in
12:34 55.9 °F 28.0 °F 30.34 in ENE 1.0 mph 7.0 mph 34 % 0.00 in
12:39 55.6 °F 28.4 °F 30.34 in NE 2.0 mph 7.0 mph 35 % 0.00 in
12:44 55.8 °F 27.9 °F 30.33 in NE 2.0 mph 7.0 mph 34 % 0.00 in
12:50 55.8 °F 27.9 °F 30.32 in NE 6.0 mph 7.0 mph 34 % 0.00 in
12:55 55.9 °F 27.3 °F 30.32 in NNW 2.0 mph 7.0 mph 33 % 0.00 in
13:00 55.8 °F 24.8 °F 30.32 in NW 2.0 mph 6.0 mph 30 % 0.00 in
13:05 55.8 °F 25.5 °F 30.32 in NNW 2.0 mph 6.0 mph 31 % 0.00 in
13:10 55.8 °F 25.5 °F 30.32 in East 2.0 mph 6.0 mph 31 % 0.00 in
13:15 56.1 °F 26.6 °F 30.32 in NNW 2.0 mph 6.0 mph 32 % 0.00 in
13:20 56.1 °F 25.2 °F 30.32 in NNW 3.0 mph 6.0 mph 30 % 0.00 in
13:25 55.9 °F 25.7 °F 30.31 in North 1.0 mph 8.0 mph 31 % 0.00 in
13:30 55.8 °F 25.5 °F 30.31 in NNE 2.0 mph 8.0 mph 31 % 0.00 in
13:35 55.8 °F 26.4 °F 30.30 in Calm   8.0 mph 32 % 0.00 in
13:40 56.1 °F 25.2 °F 30.30 in ENE 2.0 mph 7.0 mph 30 % 0.00 in
13:45 56.1 °F 26.6 °F 30.30 in North 1.0 mph 6.0 mph 32 % 0.00 in
13:50 56.1 °F 25.2 °F 30.30 in ENE 7.0 mph 11.0 mph 30 % 0.00 in
13:55 56.1 °F 25.2 °F 30.30 in NW 5.0 mph 11.0 mph 30 % 0.00 in
14:00 56.1 °F 25.2 °F 30.29 in WNW 5.0 mph 11.0 mph 30 % 0.00 in
14:05 56.5 °F 25.3 °F 30.29 in NNW 5.0 mph 9.0 mph 30 % 0.00 in
14:10 56.7 °F 25.5 °F 30.29 in NW 5.0 mph 8.0 mph 30 % 0.00 in
14:15 56.5 °F 25.3 °F 30.28 in NE 3.0 mph 7.0 mph 30 % 0.00 in
14:20 56.5 °F 26.2 °F 30.28 in NNW 4.0 mph 8.0 mph 31 % 0.00 in
14:25 56.5 °F 25.3 °F 30.28 in NE 3.0 mph 8.0 mph 30 % 0.00 in
14:30 56.5 °F 26.2 °F 30.28 in ENE 3.0 mph 8.0 mph 31 % 0.00 in
14:35 56.1 °F 25.9 °F 30.28 in WNW 4.0 mph 6.0 mph 31 % 0.00 in
14:40 55.9 °F 26.4 °F 30.28 in NNE 2.0 mph 6.0 mph 32 % 0.00 in
14:45 55.9 °F 26.4 °F 30.28 in NW 3.0 mph 6.0 mph 32 % 0.00 in
14:50 55.6 °F 25.3 °F 30.28 in NNE 3.0 mph 6.0 mph 31 % 0.00 in
14:55 55.8 °F 26.4 °F 30.27 in NW 3.0 mph 6.0 mph 32 % 0.00 in
15:00 55.6 °F 25.3 °F 30.27 in NW 4.0 mph 8.0 mph 31 % 0.00 in
15:05 55.4 °F 26.1 °F 30.27 in NE 2.0 mph 8.0 mph 32 % 0.00 in
15:10 55.6 °F 26.2 °F 30.27 in North 2.0 mph 8.0 mph 32 % 0.00 in
15:15 55.6 °F 25.3 °F 30.27 in NNW 2.0 mph 5.0 mph 31 % 0.00 in
15:20 55.6 °F 25.3 °F 30.27 in NNE 3.0 mph 5.0 mph 31 % 0.00 in
15:25 55.6 °F 26.2 °F 30.27 in NNW 2.0 mph 5.0 mph 32 % 0.00 in
15:30 55.6 °F 27.0 °F 30.28 in Calm   5.0 mph 33 % 0.00 in
15:35 55.6 °F 27.0 °F 30.28 in Calm   5.0 mph 33 % 0.00 in
15:40 55.6 °F 27.0 °F 30.28 in NW 1.0 mph 5.0 mph 33 % 0.00 in
15:45 55.6 °F 25.3 °F 30.27 in East 3.0 mph 5.0 mph 31 % 0.00 in
15:50 55.6 °F 26.2 °F 30.27 in ENE 1.0 mph 4.0 mph 32 % 0.00 in
15:55 55.4 °F 26.8 °F 30.27 in Calm   5.0 mph 33 % 0.00 in
16:00 55.4 °F 26.1 °F 30.27 in NE 2.0 mph 5.0 mph 32 % 0.00 in
16:05 55.4 °F 26.8 °F 30.28 in NNW 1.0 mph 5.0 mph 33 % 0.00 in
16:10 55.4 °F 26.8 °F 30.28 in Calm   4.0 mph 33 % 0.00 in
16:15 55.2 °F 25.9 °F 30.27 in Calm   3.0 mph 32 % 0.00 in
16:20 55.4 °F 26.8 °F 30.28 in ENE 1.0 mph 3.0 mph 33 % 0.00 in
16:25 55.2 °F 26.6 °F 30.27 in Calm   2.0 mph 33 % 0.00 in
16:31 55.2 °F 26.6 °F 30.27 in North 1.0 mph 2.0 mph 33 % 0.00 in
16:36 55.0 °F 27.1 °F 30.27 in NW 1.0 mph 3.0 mph 34 % 0.00 in
16:41 54.9 °F 27.0 °F 30.27 in Calm   4.0 mph 34 % 0.00 in
16:49 54.9 °F 27.7 °F 30.27 in WNW 1.0 mph 4.0 mph 35 % 0.00 in
16:54 54.9 °F 27.0 °F 30.27 in Calm   4.0 mph 34 % 0.00 in
16:58 54.7 °F 26.8 °F 30.27 in NNE 2.0 mph 4.0 mph 34 % 0.00 in
16:59 54.7 °F 26.8 °F 30.27 in ENE 1.0 mph 4.0 mph 34 % 0.00 in
17:03 54.7 °F 26.8 °F 30.27 in NNW 1.0 mph 4.0 mph 34 % 0.00 in
17:08 54.5 °F 26.8 °F 30.27 in North 1.0 mph 4.0 mph 34 % 0.00 in
17:13 54.3 °F 27.3 °F 30.28 in NNW 1.0 mph 4.0 mph 35 % 0.00 in
17:18 54.3 °F 27.9 °F 30.28 in Calm   4.0 mph 36 % 0.00 in
17:23 54.3 °F 27.3 °F 30.28 in Calm   3.0 mph 35 % 0.00 in
17:28 54.3 °F 27.3 °F 30.28 in NE 3.0 mph 4.0 mph 35 % 0.00 in
17:33 54.1 °F 27.1 °F 30.28 in NNE 1.0 mph 4.0 mph 35 % 0.00 in
17:39 54.0 °F 27.0 °F 30.28 in North 1.0 mph 4.0 mph 35 % 0.00 in
17:44 53.8 °F 27.5 °F 30.28 in NW 1.0 mph 4.0 mph 36 % 0.00 in
17:49 53.4 °F 27.1 °F 30.28 in NE 1.0 mph 4.0 mph 36 % 0.00 in
17:54 53.2 °F 27.0 °F 30.28 in Calm   3.0 mph 36 % 0.00 in
17:59 52.9 °F 27.3 °F 30.28 in NNE 1.0 mph 3.0 mph 37 % 0.00 in
18:04 52.7 °F 27.1 °F 30.28 in Calm   1.0 mph 37 % 0.00 in
18:09 52.3 °F 27.5 °F 30.29 in Calm   1.0 mph 38 % 0.00 in
18:14 52.2 °F 27.3 °F 30.28 in Calm   2.0 mph 38 % 0.00 in
18:19 52.0 °F 27.9 °F 30.28 in Calm   2.0 mph 39 % 0.00 in
18:24 51.6 °F 28.0 °F 30.28 in Calm   2.0 mph 40 % 0.00 in
18:29 51.4 °F 28.6 °F 30.28 in Calm   2.0 mph 41 % 0.00 in
18:34 51.3 °F 28.4 °F 30.28 in Calm   2.0 mph 41 % 0.00 in
18:39 50.9 °F 28.6 °F 30.28 in Calm   1.0 mph 42 % 0.00 in
18:44 50.7 °F 28.4 °F 30.28 in Calm   1.0 mph 42 % 0.00 in
18:49 50.5 °F 28.9 °F 30.28 in Calm   1.0 mph 43 % 0.00 in
18:54 50.4 °F 28.8 °F 30.28 in Calm   1.0 mph 43 % 0.00 in
18:59 50.4 °F 28.8 °F 30.28 in Calm   1.0 mph 43 % 0.00 in
19:04 50.4 °F 28.8 °F 30.28 in Calm   1.0 mph 43 % 0.00 in
19:09 50.4 °F 28.2 °F 30.27 in Calm   1.0 mph 42 % 0.00 in
19:14 50.4 °F 28.2 °F 30.27 in Calm   1.0 mph 42 % 0.00 in
19:19 50.4 °F 28.2 °F 30.27 in Calm   1.0 mph 42 % 0.00 in
19:24 50.4 °F 28.2 °F 30.27 in Calm   1.0 mph 42 % 0.00 in
19:29 50.4 °F 28.8 °F 30.26 in Calm   1.0 mph 43 % 0.00 in
19:34 50.2 °F 29.1 °F 30.27 in Calm   1.0 mph 44 % 0.00 in
19:39 50.2 °F 29.1 °F 30.27 in Calm   1.0 mph 44 % 0.00 in
19:44 50.2 °F 29.1 °F 30.28 in Calm   1.0 mph 44 % 0.00 in
19:49 50.2 °F 29.7 °F 30.28 in Calm   1.0 mph 45 % 0.00 in
19:55 50.0 °F 30.0 °F 30.28 in Calm   1.0 mph 46 % 0.00 in
20:00 49.6 °F 29.7 °F 30.28 in Calm   1.0 mph 46 % 0.00 in
20:05 49.6 °F 30.2 °F 30.28 in Calm     47 % 0.00 in
20:10 49.5 °F 31.1 °F 30.28 in Calm     49 % 0.00 in
20:15 49.5 °F 31.1 °F 30.29 in Calm   1.0 mph 49 % 0.00 in
20:20 49.3 °F 31.5 °F 30.29 in Calm   1.0 mph 50 % 0.00 in
20:21 49.1 °F 31.3 °F 30.29 in Calm   1.0 mph 50 % 0.00 in
20:26 48.9 °F 31.1 °F 30.30 in Calm   1.0 mph 50 % 0.00 in
20:31 48.7 °F 31.8 °F 30.30 in Calm   1.0 mph 52 % 0.00 in
20:36 48.6 °F 32.2 °F 30.30 in Calm     53 % 0.00 in
20:41 48.4 °F 32.5 °F 30.31 in Calm     54 % 0.00 in
20:46 48.4 °F 32.5 °F 30.31 in Calm     54 % 0.00 in
20:51 48.4 °F 32.5 °F 30.31 in Calm   1.0 mph 54 % 0.00 in
20:56 48.4 °F 32.9 °F 30.31 in Calm   1.0 mph 55 % 0.00 in
21:01 48.4 °F 32.9 °F 30.32 in Calm   1.0 mph 55 % 0.00 in
21:06 48.4 °F 32.9 °F 30.32 in Calm   1.0 mph 55 % 0.00 in
21:12 48.6 °F 33.6 °F 30.32 in Calm   1.0 mph 56 % 0.00 in
21:17 48.6 °F 34.5 °F 30.32 in Calm   1.0 mph 58 % 0.00 in
21:22 48.6 °F 34.0 °F 30.32 in Calm   1.0 mph 57 % 0.00 in
21:26 48.4 °F 33.4 °F 30.32 in Calm   1.0 mph 56 % 0.00 in
21:28 48.4 °F 33.4 °F 30.33 in Calm   1.0 mph 56 % 0.00 in
21:33 48.6 °F 33.6 °F 30.33 in Calm   1.0 mph 56 % 0.00 in
21:38 48.6 °F 33.1 °F 30.33 in Calm   1.0 mph 55 % 0.00 in
21:43 48.6 °F 33.1 °F 30.33 in Calm   1.0 mph 55 % 0.00 in
21:48 48.7 °F 32.9 °F 30.33 in Calm   1.0 mph 54 % 0.00 in
21:53 48.9 °F 32.5 °F 30.33 in NNW 1.0 mph 1.0 mph 53 % 0.00 in
21:58 49.3 °F 32.9 °F 30.33 in Calm   2.0 mph 53 % 0.00 in
22:04 49.3 °F 32.4 °F 30.33 in Calm   2.0 mph 52 % 0.00 in
22:09 49.3 °F 32.0 °F 30.33 in WNW 1.0 mph 2.0 mph 51 % 0.00 in
22:14 49.5 °F 31.6 °F 30.33 in Calm   2.0 mph 50 % 0.00 in
22:19 49.3 °F 31.5 °F 30.33 in Calm   2.0 mph 50 % 0.00 in
22:24 49.3 °F 30.9 °F 30.33 in Calm   2.0 mph 49 % 0.00 in
22:29 49.3 °F 30.9 °F 30.32 in Calm   2.0 mph 49 % 0.00 in
22:34 49.3 °F 30.9 °F 30.32 in Calm   2.0 mph 49 % 0.00 in
22:39 49.3 °F 30.9 °F 30.32 in NW 2.0 mph 2.0 mph 49 % 0.00 in
22:44 49.3 °F 30.9 °F 30.32 in NNW 1.0 mph 2.0 mph 49 % 0.00 in
22:49 49.3 °F 30.4 °F 30.32 in NW 1.0 mph 2.0 mph 48 % 0.00 in
22:54 49.3 °F 30.4 °F 30.32 in NNW 1.0 mph 3.0 mph 48 % 0.00 in
22:59 49.3 °F 30.9 °F 30.32 in NNW 1.0 mph 3.0 mph 49 % 0.00 in
23:04 49.1 °F 30.7 °F 30.31 in Calm   3.0 mph 49 % 0.00 in
23:09 49.1 °F 30.7 °F 30.30 in Calm   3.0 mph 49 % 0.00 in
23:14 48.9 °F 30.6 °F 30.30 in NNW 1.0 mph 2.0 mph 49 % 0.00 in
23:20 48.9 °F 30.6 °F 30.30 in NW 1.0 mph 2.0 mph 49 % 0.00 in
23:25 49.1 °F 30.7 °F 30.30 in North 1.0 mph 3.0 mph 49 % 0.00 in
23:26 49.1 °F 30.7 °F 30.30 in NW 1.0 mph 3.0 mph 49 % 0.00 in
23:31 49.1 °F 30.2 °F 30.30 in West 1.0 mph 3.0 mph 48 % 0.00 in
23:36 49.3 °F 30.4 °F 30.30 in NNW 1.0 mph 3.0 mph 48 % 0.00 in
23:41 49.3 °F 29.8 °F 30.30 in Calm   3.0 mph 47 % 0.00 in
23:46 49.3 °F 29.8 °F 30.30 in Calm   3.0 mph 47 % 0.00 in
23:51 49.3 °F 29.3 °F 30.31 in Calm   3.0 mph 46 % 0.00 in
23:56 49.3 °F 29.8 °F 30.31 in NW 1.0 mph 1.0 mph 47 % 0.00 in
Spring, Texas: Villages of Bridgestone
Compliments of Weather Underground - 3 mb

Script developed by  Jim McMurry - jmcmurry@mwt.net Adapted for the template by  Wim van der Kuil - Leuven-Template.eu

You find our weather info also at:

UK Metoffice

WeatherCloud

Weather Underground

Mid-South Weather Network

AWEKAS

Citizen Weather Observer Program (CWOP)

HAMweather, WeatherForYou, PWS Weather

Equipment we use:

Weather-station
Davis Vantage Vue

Weather-program
Meteohub

Weather-server
Debian 7.9 x86 (Guest)

Provider
DreamHost

Davis Vantage Vue

Meteohub

Debian 7.9 x86 (Guest)

DreamHost